createdAt,value
2022-11-04T00:00:45.997Z,11.10
2022-11-04T00:03:12.598Z,11.00
2022-11-04T00:05:39.139Z,11.00
2022-11-04T00:08:24.159Z,11.10
2022-11-04T00:11:13.112Z,11.10
2022-11-04T00:13:39.642Z,11.10
2022-11-04T00:16:24.711Z,11.10
2022-11-04T00:18:51.519Z,11.00
2022-11-04T00:21:36.794Z,11.00
2022-11-04T00:24:21.664Z,11.00
2022-11-04T00:27:06.830Z,11.00
2022-11-04T00:29:33.412Z,11.00
2022-11-04T00:32:18.749Z,11.00
2022-11-04T00:34:45.271Z,11.00
2022-11-04T00:37:11.837Z,11.00
2022-11-04T00:39:38.395Z,11.00
2022-11-04T00:42:05.126Z,11.00
2022-11-04T00:44:31.913Z,11.00
2022-11-04T00:46:58.428Z,11.00
2022-11-04T00:49:24.990Z,11.00
2022-11-04T00:51:51.548Z,11.10
2022-11-04T00:54:18.290Z,11.10
2022-11-04T00:56:44.915Z,11.10
2022-11-04T00:59:14.382Z,11.20
2022-11-04T01:01:41.546Z,11.20
2022-11-04T01:04:09.242Z,11.20
2022-11-04T01:06:35.810Z,11.30
2022-11-04T01:09:04.895Z,11.30
2022-11-04T01:11:31.789Z,11.30
2022-11-04T01:13:58.398Z,11.30
2022-11-04T01:16:25.448Z,11.40
2022-11-04T01:18:52.000Z,11.40
2022-11-04T01:21:18.694Z,11.30
2022-11-04T01:23:45.275Z,11.30
2022-11-04T01:26:13.510Z,11.30
2022-11-04T01:28:40.065Z,11.30
2022-11-04T01:31:07.329Z,11.30
2022-11-04T01:33:33.903Z,11.30
2022-11-04T01:36:00.987Z,11.30
2022-11-04T01:38:28.113Z,11.30
2022-11-04T01:40:54.663Z,11.30
2022-11-04T01:43:22.020Z,11.30
2022-11-04T01:45:53.666Z,11.30
2022-11-04T01:48:29.521Z,11.30
2022-11-04T01:50:56.325Z,11.30
2022-11-04T01:53:25.868Z,11.30
2022-11-04T01:55:56.858Z,11.30
2022-11-04T01:58:25.647Z,11.30
2022-11-04T02:00:52.501Z,11.30
2022-11-04T02:03:20.679Z,11.30
2022-11-04T02:05:47.629Z,11.30
2022-11-04T02:08:15.098Z,11.30
2022-11-04T02:10:45.943Z,11.20
2022-11-04T02:13:12.742Z,11.30
2022-11-04T02:15:45.517Z,11.30
2022-11-04T02:18:28.633Z,11.10
2022-11-04T02:21:13.516Z,11.20
2022-11-04T02:23:58.968Z,11.20
2022-11-04T02:26:25.479Z,11.30
2022-11-04T02:29:11.026Z,11.20
2022-11-04T02:31:37.544Z,11.20
2022-11-04T02:34:22.743Z,11.30
2022-11-04T02:37:02.318Z,11.20
2022-11-04T02:39:39.623Z,11.30
2022-11-04T02:42:11.304Z,11.30
2022-11-04T02:44:50.530Z,11.30
2022-11-04T02:47:19.779Z,11.30
2022-11-04T02:49:59.055Z,11.30
2022-11-04T02:52:50.298Z,11.30
2022-11-04T02:55:30.112Z,11.30
2022-11-04T02:57:58.003Z,11.30
2022-11-04T03:00:24.947Z,11.30
2022-11-04T03:02:54.105Z,11.30
2022-11-04T03:05:23.207Z,11.30
2022-11-04T03:07:51.227Z,11.60
2022-11-04T03:10:22.194Z,11.30
2022-11-04T03:12:53.609Z,11.30
2022-11-04T03:15:23.160Z,11.30
2022-11-04T03:18:00.707Z,11.30
2022-11-04T03:20:28.586Z,11.30
2022-11-04T03:22:59.712Z,11.30
2022-11-04T03:25:30.048Z,11.30
2022-11-04T03:27:58.430Z,11.30
2022-11-04T03:30:25.133Z,11.30
2022-11-04T03:33:10.981Z,11.30
2022-11-04T03:35:37.897Z,11.20
2022-11-04T03:38:05.165Z,11.30
2022-11-04T03:40:31.693Z,11.30
2022-11-04T03:43:00.146Z,11.30
2022-11-04T03:45:27.185Z,11.30
2022-11-04T03:47:53.833Z,11.30
2022-11-04T03:50:28.390Z,11.30
2022-11-04T03:52:55.481Z,11.30
2022-11-04T03:55:24.610Z,11.30
2022-11-04T03:58:10.846Z,11.00
2022-11-04T04:00:41.455Z,11.30
2022-11-04T04:03:10.934Z,11.30
2022-11-04T04:05:46.597Z,11.30
2022-11-04T04:08:13.109Z,11.30
2022-11-04T04:10:42.808Z,11.30
2022-11-04T04:13:20.838Z,11.30
2022-11-04T04:15:56.222Z,11.20
2022-11-04T04:18:30.480Z,11.20
2022-11-04T04:20:58.835Z,11.20
2022-11-04T04:23:45.793Z,11.10
2022-11-04T04:26:31.803Z,11.20
2022-11-04T04:28:58.872Z,11.10
2022-11-04T04:31:44.188Z,11.10
2022-11-04T04:34:10.750Z,11.10
2022-11-04T04:36:42.165Z,11.10
2022-11-04T04:39:28.293Z,11.10
2022-11-04T04:42:14.086Z,11.10
2022-11-04T04:45:01.125Z,11.10
2022-11-04T04:47:30.216Z,11.00
2022-11-04T04:49:57.698Z,11.00
2022-11-04T04:52:28.942Z,11.00
2022-11-04T04:54:55.471Z,11.00
2022-11-04T04:57:22.118Z,11.00
2022-11-04T04:59:48.678Z,11.00
2022-11-04T05:02:15.460Z,11.00
2022-11-04T05:04:42.209Z,11.00
2022-11-04T05:07:09.962Z,11.00
2022-11-04T05:09:36.781Z,10.90
2022-11-04T05:12:03.553Z,10.90
2022-11-04T05:14:30.443Z,10.90
2022-11-04T05:16:56.977Z,11.00
2022-11-04T05:19:23.530Z,10.90
2022-11-04T05:21:50.078Z,10.90
2022-11-04T05:24:16.739Z,10.90
2022-11-04T05:26:43.331Z,10.80
2022-11-04T05:29:10.494Z,10.80
2022-11-04T05:31:37.117Z,10.80
2022-11-04T05:34:05.406Z,10.80
2022-11-04T05:36:35.151Z,10.90
2022-11-04T05:39:01.659Z,10.80
2022-11-04T05:41:28.340Z,10.80
2022-11-04T05:43:55.778Z,10.80
2022-11-04T05:46:22.546Z,10.80
2022-11-04T05:48:49.074Z,10.80
2022-11-04T05:51:16.128Z,10.80
2022-11-04T05:53:42.769Z,10.80
2022-11-04T05:56:09.338Z,10.80
2022-11-04T05:58:35.929Z,10.70
2022-11-04T06:01:21.162Z,10.70
2022-11-04T06:03:47.731Z,10.70
2022-11-04T06:06:14.303Z,10.70
2022-11-04T06:08:44.997Z,10.70
2022-11-04T06:11:12.025Z,10.70
2022-11-04T06:13:38.573Z,10.70
2022-11-04T06:16:05.275Z,10.70
2022-11-04T06:18:31.909Z,10.70
2022-11-04T06:21:10.633Z,10.70
2022-11-04T06:23:37.195Z,10.70
2022-11-04T06:26:03.924Z,10.70
2022-11-04T06:28:30.551Z,10.80
2022-11-04T06:30:58.286Z,10.80
2022-11-04T06:33:24.950Z,10.70
2022-11-04T06:35:51.514Z,10.70
2022-11-04T06:38:18.043Z,10.70
2022-11-04T06:40:44.570Z,10.80
2022-11-04T06:43:11.443Z,10.80
2022-11-04T06:45:38.247Z,10.80
2022-11-04T06:48:04.886Z,10.80
2022-11-04T06:50:31.471Z,10.80
2022-11-04T06:52:57.994Z,10.80
2022-11-04T06:55:24.562Z,10.90
2022-11-04T06:57:51.262Z,10.90
2022-11-04T07:00:18.197Z,10.90
2022-11-04T07:02:44.844Z,10.90
2022-11-04T07:05:12.144Z,11.00
2022-11-04T07:07:38.716Z,11.00
2022-11-04T07:10:05.475Z,11.00
2022-11-04T07:12:32.018Z,11.10
2022-11-04T07:14:58.676Z,11.20
2022-11-04T07:17:25.251Z,11.20
2022-11-04T07:19:51.784Z,11.20
2022-11-04T07:22:18.332Z,11.20
2022-11-04T07:24:44.858Z,11.20
2022-11-04T07:27:11.472Z,11.20
2022-11-04T07:29:38.059Z,11.20
2022-11-04T07:32:04.782Z,11.30
2022-11-04T07:34:31.371Z,11.20
2022-11-04T07:36:58.084Z,11.30
2022-11-04T07:39:24.616Z,11.30
2022-11-04T07:41:54.307Z,11.30
2022-11-04T07:44:23.681Z,11.30
2022-11-04T07:46:50.314Z,11.30
2022-11-04T07:49:17.046Z,11.30
2022-11-04T07:51:43.715Z,11.40
2022-11-04T07:54:10.256Z,11.30
2022-11-04T07:56:37.014Z,11.30
2022-11-04T07:59:05.505Z,11.30
2022-11-04T08:01:32.229Z,11.40
2022-11-04T08:03:58.979Z,11.40
2022-11-04T08:06:25.746Z,11.40
2022-11-04T08:08:54.052Z,11.40
2022-11-04T08:11:23.291Z,11.50
2022-11-04T08:13:50.119Z,11.60
2022-11-04T08:16:18.287Z,11.60
2022-11-04T08:18:45.298Z,11.60
2022-11-04T08:21:11.944Z,11.70
2022-11-04T08:23:38.658Z,11.50
2022-11-04T08:26:09.694Z,11.60
2022-11-04T08:28:36.312Z,11.50
2022-11-04T08:31:10.905Z,11.50
2022-11-04T08:33:37.467Z,11.50
2022-11-04T08:36:09.315Z,11.50
2022-11-04T08:38:36.219Z,11.50
2022-11-04T08:41:03.859Z,11.50
2022-11-04T08:43:30.606Z,11.50
2022-11-04T08:45:57.574Z,11.40
2022-11-04T08:48:24.176Z,11.40
2022-11-04T08:50:51.639Z,11.40
2022-11-04T08:53:18.226Z,11.40
2022-11-04T08:55:44.854Z,11.40
2022-11-04T08:58:11.719Z,11.40
2022-11-04T09:00:38.669Z,11.50
2022-11-04T09:03:05.346Z,11.50
2022-11-04T09:05:32.180Z,11.50
2022-11-04T09:07:58.725Z,11.50
2022-11-04T09:10:25.290Z,11.60
2022-11-04T09:12:51.909Z,11.60
2022-11-04T09:15:18.423Z,11.60
2022-11-04T09:17:44.970Z,11.50
2022-11-04T09:20:12.202Z,11.60
2022-11-04T09:22:43.107Z,11.60
2022-11-04T09:25:12.195Z,11.60
2022-11-04T09:27:38.701Z,11.60
2022-11-04T09:30:05.639Z,11.50
2022-11-04T09:32:32.145Z,11.40
2022-11-04T09:34:58.731Z,11.50
2022-11-04T09:37:25.292Z,11.50
2022-11-04T09:39:54.000Z,11.50
2022-11-04T09:42:20.665Z,11.00
2022-11-04T09:45:20.762Z,11.50
2022-11-04T09:47:47.054Z,11.50
2022-11-04T09:50:20.416Z,11.70
2022-11-04T09:52:49.420Z,11.50
2022-11-04T09:55:29.332Z,11.60
2022-11-04T09:57:58.436Z,11.60
2022-11-04T10:00:25.393Z,11.60
2022-11-04T10:02:58.034Z,11.70
2022-11-04T10:05:36.810Z,11.70
2022-11-04T10:08:20.472Z,11.80
2022-11-04T10:11:06.613Z,11.90
2022-11-04T10:13:42.018Z,12.00
2022-11-04T10:16:27.565Z,12.10
2022-11-04T10:19:11.572Z,12.30
2022-11-04T10:21:52.562Z,12.40
2022-11-04T10:24:33.849Z,12.40
2022-11-04T10:27:04.134Z,12.40
2022-11-04T10:29:37.368Z,12.50
2022-11-04T10:32:10.071Z,12.60
2022-11-04T10:34:43.583Z,12.60
2022-11-04T10:37:13.228Z,12.80
2022-11-04T10:39:42.994Z,12.90
2022-11-04T10:42:27.575Z,13.00
2022-11-04T10:44:54.162Z,13.30
2022-11-04T10:47:39.565Z,13.40
2022-11-04T10:50:30.181Z,13.40
2022-11-04T10:53:14.056Z,13.60
2022-11-04T10:55:44.638Z,13.70
2022-11-04T10:58:20.216Z,13.70
2022-11-04T11:00:46.994Z,13.80
2022-11-04T11:03:22.819Z,13.90
2022-11-04T11:05:49.865Z,13.90
2022-11-04T11:08:30.293Z,13.90
2022-11-04T11:10:57.227Z,13.90
2022-11-04T11:13:25.560Z,13.90
2022-11-04T11:16:03.862Z,13.90
2022-11-04T11:18:30.387Z,13.90
2022-11-04T11:21:21.098Z,13.80
2022-11-04T11:23:48.700Z,13.70
2022-11-04T11:26:17.261Z,14.00
2022-11-04T11:28:48.127Z,13.90
2022-11-04T11:31:23.380Z,14.00
2022-11-04T11:33:52.952Z,14.10
2022-11-04T11:36:23.026Z,14.10
2022-11-04T11:38:54.589Z,14.20
2022-11-04T11:41:25.490Z,14.30
2022-11-04T11:43:54.073Z,14.30
2022-11-04T11:46:22.015Z,14.30
2022-11-04T11:49:01.013Z,14.50
2022-11-04T11:51:32.312Z,14.40
2022-11-04T11:54:05.446Z,14.50
2022-11-04T11:57:07.338Z,14.60
2022-11-04T12:02:26.962Z,14.50
2022-11-04T12:10:51.761Z,14.60
2022-11-04T12:13:29.234Z,14.50
2022-11-04T12:16:01.955Z,14.60
2022-11-04T12:18:28.488Z,14.60
2022-11-04T12:21:10.662Z,14.70
2022-11-04T12:23:43.414Z,14.70
2022-11-04T12:26:17.841Z,14.60
2022-11-04T12:28:44.361Z,14.50
2022-11-04T12:31:29.900Z,14.50
2022-11-04T12:34:11.834Z,14.50
2022-11-04T12:36:47.773Z,14.40
2022-11-04T12:39:25.577Z,14.50
2022-11-04T12:42:20.513Z,14.50
2022-11-04T12:45:03.051Z,14.50
2022-11-04T12:47:35.763Z,13.90
2022-11-04T12:50:17.614Z,14.30
2022-11-04T12:53:02.993Z,14.30
2022-11-04T12:55:29.506Z,14.30
2022-11-04T12:58:14.950Z,14.30
2022-11-04T13:00:42.970Z,14.20
2022-11-04T13:03:14.932Z,14.20
2022-11-04T13:05:41.579Z,14.20
2022-11-04T13:08:17.121Z,14.20
2022-11-04T13:10:48.165Z,14.10
2022-11-04T13:13:16.442Z,14.10
2022-11-04T13:15:48.575Z,14.10
2022-11-04T13:18:17.443Z,14.00
2022-11-04T13:21:02.237Z,13.90
2022-11-04T13:23:34.567Z,13.90
2022-11-04T13:26:02.259Z,14.00
2022-11-04T13:28:28.885Z,14.00
2022-11-04T13:30:58.287Z,14.00
2022-11-04T13:33:43.434Z,14.00
2022-11-04T13:36:13.037Z,14.00
2022-11-04T13:39:05.843Z,14.00
2022-11-04T13:41:38.982Z,13.90
2022-11-04T13:44:11.796Z,13.80
2022-11-04T13:46:38.420Z,13.70
2022-11-04T13:49:06.223Z,13.80
2022-11-04T13:51:37.890Z,13.60
2022-11-04T13:54:04.877Z,13.60
2022-11-04T13:56:39.251Z,13.50
2022-11-04T13:59:06.382Z,13.40
2022-11-04T14:01:33.760Z,13.40
2022-11-04T14:04:12.430Z,13.40
2022-11-04T14:06:54.408Z,13.40
2022-11-04T14:09:33.533Z,13.40
2022-11-04T14:12:13.515Z,13.30
2022-11-04T14:14:47.382Z,13.30
2022-11-04T14:17:32.653Z,13.30
2022-11-04T14:20:06.081Z,13.30
2022-11-04T14:22:37.602Z,13.30
2022-11-04T14:25:24.438Z,13.30
2022-11-04T14:27:52.338Z,13.30
2022-11-04T14:30:28.130Z,13.20
2022-11-04T14:33:03.275Z,13.20
2022-11-04T14:35:30.980Z,13.20
2022-11-04T14:38:00.048Z,13.10
2022-11-04T14:40:28.746Z,13.10
2022-11-04T14:42:56.208Z,13.10
2022-11-04T14:45:26.918Z,13.00
2022-11-04T14:47:57.631Z,13.00
2022-11-04T14:50:26.050Z,12.90
2022-11-04T14:52:54.527Z,12.90
2022-11-04T14:55:22.910Z,12.80
2022-11-04T14:57:51.743Z,12.80
2022-11-04T15:00:21.015Z,12.80
2022-11-04T15:02:48.311Z,12.90
2022-11-04T15:05:23.306Z,12.80
2022-11-04T15:07:49.924Z,12.80
2022-11-04T15:10:21.395Z,12.80
2022-11-04T15:12:51.098Z,12.80
2022-11-04T15:15:23.874Z,12.70
2022-11-04T15:17:50.475Z,12.70
2022-11-04T15:20:24.535Z,12.60
2022-11-04T15:22:52.167Z,12.60
2022-11-04T15:25:19.101Z,12.60
2022-11-04T15:27:45.691Z,12.50
2022-11-04T15:30:26.107Z,12.40
2022-11-04T15:32:53.587Z,12.40
2022-11-04T15:35:20.334Z,12.30
2022-11-04T15:37:49.251Z,12.30
2022-11-04T15:40:16.736Z,12.30
2022-11-04T15:42:44.563Z,12.30
2022-11-04T15:45:26.197Z,12.20
2022-11-04T15:48:11.238Z,12.20
2022-11-04T15:50:38.498Z,12.10
2022-11-04T15:53:09.452Z,12.00
2022-11-04T15:55:36.958Z,12.00
2022-11-04T15:58:03.475Z,12.00
2022-11-04T16:00:30.325Z,11.90
2022-11-04T16:03:00.526Z,11.80
2022-11-04T16:05:33.127Z,11.80
2022-11-04T16:08:19.795Z,11.80
2022-11-04T16:10:46.529Z,11.80
2022-11-04T16:13:16.129Z,11.70
2022-11-04T16:15:51.489Z,11.60
2022-11-04T16:18:26.490Z,11.60
2022-11-04T16:20:54.080Z,11.60
2022-11-04T16:23:22.674Z,11.50
2022-11-04T16:26:04.139Z,11.40
2022-11-04T16:28:31.661Z,11.40
2022-11-04T16:30:58.186Z,11.40
2022-11-04T16:33:24.895Z,11.40
2022-11-04T16:35:51.434Z,11.40
2022-11-04T16:38:17.974Z,11.30
2022-11-04T16:40:46.485Z,11.30
2022-11-04T16:43:13.883Z,11.20
2022-11-04T16:45:45.589Z,11.20
2022-11-04T16:48:19.593Z,11.40
2022-11-04T16:50:46.713Z,12.70
2022-11-04T16:53:13.530Z,13.70
2022-11-04T16:55:40.888Z,14.20
2022-11-04T16:58:07.560Z,14.50
2022-11-04T17:00:34.136Z,15.00
2022-11-04T17:03:01.770Z,15.20
2022-11-04T17:05:28.344Z,15.30
2022-11-04T17:08:00.196Z,15.40
2022-11-04T17:10:31.452Z,15.40
2022-11-04T17:12:58.006Z,15.40
2022-11-04T17:15:24.585Z,15.40
2022-11-04T17:17:51.224Z,15.40
2022-11-04T17:20:18.180Z,14.70
2022-11-04T17:22:46.665Z,13.90
2022-11-04T17:25:15.155Z,13.40
2022-11-04T17:27:41.955Z,12.90
2022-11-04T17:30:08.928Z,12.60
2022-11-04T17:32:35.453Z,12.30
2022-11-04T17:35:02.026Z,12.00
2022-11-04T17:37:28.548Z,11.80
2022-11-04T17:39:55.381Z,11.70
2022-11-04T17:42:40.761Z,11.70
2022-11-04T17:45:07.550Z,11.60
2022-11-04T17:47:37.673Z,11.60
2022-11-04T17:53:28.651Z,11.70
2022-11-04T17:55:55.248Z,11.20
2022-11-04T17:58:21.842Z,11.40
2022-11-04T18:00:48.435Z,11.50
2022-11-04T18:03:16.092Z,11.50
2022-11-04T18:05:43.237Z,11.40
2022-11-04T18:08:09.789Z,11.40
2022-11-04T18:10:36.337Z,11.30
2022-11-04T18:13:02.923Z,11.30
2022-11-04T18:15:30.290Z,11.20
2022-11-04T18:17:57.307Z,11.20
2022-11-04T18:20:23.930Z,11.10
2022-11-04T18:22:50.452Z,11.20
2022-11-04T18:25:17.481Z,11.10
2022-11-04T18:27:44.710Z,11.00
2022-11-04T18:30:11.766Z,11.00
2022-11-04T18:32:38.548Z,10.90
2022-11-04T18:35:05.888Z,10.90
2022-11-04T18:37:33.269Z,10.80
2022-11-04T18:39:59.894Z,10.70
2022-11-04T18:42:26.466Z,10.70
2022-11-04T18:44:53.081Z,10.60
2022-11-04T18:47:20.269Z,10.60
2022-11-04T18:49:47.370Z,10.60
2022-11-04T18:52:13.928Z,10.60
2022-11-04T18:54:42.262Z,10.60
2022-11-04T18:57:11.511Z,10.50
2022-11-04T18:59:38.051Z,10.50
2022-11-04T19:02:05.743Z,10.40
2022-11-04T19:04:32.805Z,10.40
2022-11-04T19:06:59.684Z,10.40
2022-11-04T19:12:31.815Z,10.40
2022-11-04T19:14:58.462Z,10.40
2022-11-04T19:17:25.229Z,10.30
2022-11-04T19:19:51.787Z,10.30
2022-11-04T19:22:18.338Z,10.30
2022-11-04T19:24:45.948Z,10.30
2022-11-04T19:27:12.548Z,10.30
2022-11-04T19:29:39.481Z,10.30
2022-11-04T19:32:11.067Z,10.30
2022-11-04T19:34:39.570Z,10.30
2022-11-04T19:37:06.153Z,10.30
2022-11-04T19:39:32.712Z,10.30
2022-11-04T19:42:17.768Z,10.30
2022-11-04T19:44:44.332Z,10.30
2022-11-04T19:47:11.133Z,10.30
2022-11-04T19:49:37.702Z,10.30
2022-11-04T19:52:04.373Z,10.30
2022-11-04T19:54:30.956Z,10.30
2022-11-04T19:56:58.021Z,10.40
2022-11-04T19:59:25.517Z,10.30
2022-11-04T20:01:52.311Z,10.40
2022-11-04T20:04:19.237Z,10.30
2022-11-04T20:06:45.790Z,10.40
2022-11-04T20:09:12.395Z,10.40
2022-11-04T20:11:59.760Z,10.40
2022-11-04T20:14:27.101Z,10.40
2022-11-04T20:16:54.018Z,10.40
2022-11-04T20:19:22.952Z,10.40
2022-11-04T20:21:50.105Z,10.40
2022-11-04T20:24:16.891Z,10.40
2022-11-04T20:26:44.102Z,10.40
2022-11-04T20:29:11.233Z,10.40
2022-11-04T20:31:39.215Z,10.50
2022-11-04T20:34:07.927Z,10.50
2022-11-04T20:36:35.556Z,10.40
2022-11-04T20:39:04.195Z,10.40
2022-11-04T20:41:30.770Z,10.50
2022-11-04T20:43:58.056Z,10.50
2022-11-04T20:46:25.983Z,10.40
2022-11-04T20:48:53.129Z,10.40
2022-11-04T20:51:21.698Z,10.40
2022-11-04T20:53:48.763Z,10.40
2022-11-04T20:56:16.419Z,10.40
2022-11-04T20:58:43.939Z,10.40
2022-11-04T21:01:15.315Z,10.30
2022-11-04T21:03:43.087Z,10.30
2022-11-04T21:06:10.472Z,10.30
2022-11-04T21:08:37.151Z,10.40
2022-11-04T21:11:05.344Z,10.30
2022-11-04T21:13:33.255Z,10.40
2022-11-04T21:16:00.323Z,10.40
2022-11-04T21:18:27.095Z,10.40
2022-11-04T21:20:53.798Z,10.40
2022-11-04T21:23:21.438Z,10.40
2022-11-04T21:25:49.765Z,10.40
2022-11-04T21:28:16.817Z,10.40
2022-11-04T21:30:46.149Z,10.40
2022-11-04T21:33:12.987Z,10.30
2022-11-04T21:35:40.249Z,10.30
2022-11-04T21:38:08.778Z,10.20
2022-11-04T21:40:35.574Z,10.30
2022-11-04T21:43:02.142Z,10.30
2022-11-04T21:45:28.707Z,10.20
2022-11-04T21:47:55.241Z,10.20
2022-11-04T21:50:21.794Z,10.20
2022-11-04T21:52:48.440Z,10.20
2022-11-04T21:55:15.644Z,10.30
2022-11-04T21:57:42.329Z,10.30
2022-11-04T22:00:10.182Z,10.20
2022-11-04T22:02:44.415Z,10.20
2022-11-04T22:05:11.823Z,10.30
2022-11-04T22:07:57.601Z,10.30
2022-11-04T22:10:24.639Z,10.20
2022-11-04T22:12:51.622Z,10.10
2022-11-04T22:15:38.530Z,10.20
2022-11-04T22:18:05.895Z,10.20
2022-11-04T22:20:34.504Z,10.20
2022-11-04T22:23:01.116Z,10.20
2022-11-04T22:25:27.655Z,10.20
2022-11-04T22:27:54.167Z,10.20
2022-11-04T22:30:20.704Z,10.20
2022-11-04T22:32:47.244Z,10.20
2022-11-04T22:35:13.841Z,10.10
2022-11-04T22:37:40.345Z,10.10
2022-11-04T22:40:07.377Z,10.10
2022-11-04T22:42:34.020Z,10.10
2022-11-04T22:45:00.742Z,10.10
2022-11-04T22:47:27.621Z,10.10
2022-11-04T22:49:54.193Z,10.10
2022-11-04T22:52:20.799Z,10.00
2022-11-04T22:54:47.328Z,10.00
2022-11-04T22:57:13.890Z,10.00
2022-11-04T22:59:40.449Z,9.90
2022-11-04T23:02:07.116Z,9.80
2022-11-04T23:04:33.745Z,9.80
2022-11-04T23:07:00.316Z,9.70
2022-11-04T23:09:26.951Z,9.80
2022-11-04T23:12:12.442Z,9.70
2022-11-04T23:14:57.556Z,9.70
2022-11-04T23:17:42.598Z,9.70
2022-11-04T23:20:11.013Z,9.70
2022-11-04T23:22:56.323Z,9.60
2022-11-04T23:25:23.476Z,9.70
2022-11-04T23:28:10.053Z,9.50
2022-11-04T23:30:40.135Z,9.50
2022-11-04T23:33:08.170Z,9.60
2022-11-04T23:35:54.965Z,9.50
2022-11-04T23:38:21.772Z,9.50
2022-11-04T23:41:08.158Z,9.50
2022-11-04T23:43:35.286Z,9.50
2022-11-04T23:46:20.721Z,9.40
2022-11-04T23:49:05.856Z,9.30
2022-11-04T23:51:50.945Z,9.30
2022-11-04T23:54:35.945Z,9.30
2022-11-04T23:57:21.569Z,9.30
